Time;durP1;ratioP1;P1;durP2;ratioP2;P2;SDS_P1;SDS_P2;PMS_P1;PMS_P2;Temp;Humidity;BMP_temperature;BMP_pressure;BME280_temperature;BME280_humidity;BME280_pressure;Samples;Min_cycle;Max_cycle;Signal;HPM_P1;HPM_P2
2023/10/12 00:02:13;;;;;;;15.38;9.95;;;18.70;79.30;;;;;;5052060;28;20044;-69
2023/10/12 00:04:43;;;;;;;16.30;9.90;;;18.70;79.50;;;;;;5052467;28;20397;-68
2023/10/12 00:07:16;;;;;;;21.33;11.07;;;18.70;79.70;;;;;;5040362;28;20033;-68
2023/10/12 00:09:48;;;;;;;20.50;11.10;;;18.70;79.90;;;;;;5038126;28;20036;-68
2023/10/12 00:12:23;;;;;;;17.73;11.07;;;18.70;80.00;;;;;;5039877;28;20067;-68
2023/10/12 00:14:50;;;;;;;17.63;11.70;;;18.70;80.20;;;;;;5056507;28;20457;-68
2023/10/12 00:17:18;;;;;;;21.58;11.75;;;18.60;80.30;;;;;;5055971;28;20043;-68
2023/10/12 00:19:44;;;;;;;16.38;11.70;;;18.60;80.50;;;;;;5056074;28;20028;-69
2023/10/12 00:22:11;;;;;;;20.52;12.02;;;18.60;80.60;;;;;;5026657;28;20361;-68
2023/10/12 00:24:40;;;;;;;17.95;11.57;;;18.60;81.40;;;;;;5055968;28;20441;-68
2023/10/12 00:27:11;;;;;;;16.65;10.48;;;18.60;80.90;;;;;;5046649;28;20175;-69
2023/10/12 00:29:39;;;;;;;16.38;11.02;;;18.60;81.00;;;;;;5042965;28;20048;-68
2023/10/12 00:32:13;;;;;;;18.10;11.30;;;18.60;81.10;;;;;;5040562;28;20061;-68
2023/10/12 00:34:45;;;;;;;16.17;10.50;;;18.60;81.20;;;;;;5055432;28;20025;-68
2023/10/12 00:37:12;;;;;;;19.45;11.43;;;18.60;81.30;;;;;;5054392;28;20104;-68
2023/10/12 00:39:47;;;;;;;17.92;12.45;;;18.60;81.40;;;;;;5038832;28;20033;-68
2023/10/12 00:42:17;;;;;;;19.83;12.05;;;18.60;81.40;;;;;;5057360;28;20112;-68
2023/10/12 00:44:52;;;;;;;18.25;11.85;;;18.60;81.40;;;;;;5055666;28;20035;-69
2023/10/12 00:47:29;;;;;;;18.75;12.65;;;18.60;81.50;;;;;;5054284;28;20112;-68
2023/10/12 00:49:58;;;;;;;18.52;12.80;;;18.60;81.60;;;;;;5038449;28;20049;-68
2023/10/12 00:52:26;;;;;;;19.42;12.63;;;18.50;81.70;;;;;;5057334;28;20275;-68
2023/10/12 00:55:02;;;;;;;20.02;13.07;;;18.60;81.90;;;;;;5055720;28;20044;-69
2023/10/12 00:57:28;;;;;;;22.23;12.80;;;18.60;82.00;;;;;;5053986;28;20021;-68
2023/10/12 00:59:54;;;;;;;19.92;12.75;;;18.50;82.10;;;;;;5055895;28;20043;-68
2023/10/12 01:02:24;;;;;;;18.73;12.82;;;18.50;82.20;;;;;;5055942;28;20453;-68
2023/10/12 01:04:53;;;;;;;22.50;13.93;;;18.50;82.30;;;;;;5021074;28;20054;-68
2023/10/12 01:07:20;;;;;;;20.70;13.10;;;18.50;82.50;;;;;;5037864;28;20021;-69
2023/10/12 01:09:54;;;;;;;27.30;13.52;;;18.50;82.80;;;;;;5053861;28;20061;-68
2023/10/12 01:12:26;;;;;;;18.73;12.68;;;18.50;83.00;;;;;;5039313;28;20021;-68
2023/10/12 01:14:54;;;;;;;23.95;13.25;;;18.50;83.00;;;;;;5052926;28;20025;-69
2023/10/12 01:17:34;;;;;;;19.20;13.30;;;18.50;83.10;;;;;;5022265;28;20427;-69
2023/10/12 01:20:26;;;;;;;21.70;14.20;;;18.50;83.20;;;;;;5017101;28;20034;-69
2023/10/12 01:22:53;;;;;;;23.30;14.63;;;18.50;83.30;;;;;;5002305;28;20068;-69
2023/10/12 01:25:28;;;;;;;23.83;15.30;;;18.50;83.40;;;;;;5034487;28;20459;-69
2023/10/12 01:27:54;;;;;;;23.55;13.85;;;18.50;83.60;;;;;;5035096;28;20451;-70
2023/10/12 01:30:23;;;;;;;21.35;14.63;;;18.40;83.60;;;;;;5033562;28;20033;-69
2023/10/12 01:32:59;;;;;;;25.73;14.48;;;18.40;83.80;;;;;;5035166;28;20026;-69
2023/10/12 01:35:39;;;;;;;24.83;14.95;;;18.40;83.90;;;;;;5026645;28;20136;-69
2023/10/12 01:38:08;;;;;;;24.90;14.30;;;18.40;84.00;;;;;;5034969;28;20096;-69
2023/10/12 01:43:17;;;;;;;23.50;15.65;;;18.40;84.30;;;;;;5021369;28;20037;-69
2023/10/12 01:45:44;;;;;;;24.00;15.52;;;18.40;84.40;;;;;;5000298;28;20037;-69
2023/10/12 01:48:16;;;;;;;23.00;15.23;;;18.40;84.60;;;;;;5001635;28;20088;-70
2023/10/12 01:50:43;;;;;;;24.17;14.32;;;18.40;84.70;;;;;;5004883;28;20169;-69
2023/10/12 01:55:45;;;;;;;21.95;14.90;;;18.30;85.00;;;;;;5036963;28;20446;-69
2023/10/12 01:58:12;;;;;;;20.33;14.02;;;18.40;85.00;;;;;;5021719;28;20037;-68
2023/10/12 02:00:51;;;;;;;21.75;14.20;;;18.40;85.10;;;;;;5053596;28;20103;-69
2023/10/12 02:03:21;;;;;;;20.75;13.73;;;18.40;85.10;;;;;;5055635;28;20401;-68
2023/10/12 02:05:50;;;;;;;23.35;14.15;;;18.40;85.20;;;;;;5036306;28;20024;-69
2023/10/12 02:08:17;;;;;;;19.20;13.45;;;18.30;85.30;;;;;;5038160;28;20512;-68
2023/10/12 02:10:54;;;;;;;19.95;13.55;;;18.30;85.40;;;;;;5053720;28;20045;-68
2023/10/12 02:13:21;;;;;;;19.08;13.82;;;18.40;85.60;;;;;;5037635;28;20039;-69
2023/10/12 02:15:51;;;;;;;22.65;14.65;;;18.30;85.50;;;;;;5052644;28;20021;-69
2023/10/12 02:18:19;;;;;;;21.38;13.77;;;18.30;85.60;;;;;;5037906;28;20028;-69
2023/10/12 02:26:36;;;;;;;19.70;13.30;;;18.30;85.70;;;;;;5035897;28;20017;-69
2023/10/12 02:34:21;;;;;;;19.35;11.55;;;18.20;85.60;;;;;;5055477;28;20450;-68
2023/10/12 02:37:00;;;;;;;20.90;11.82;;;18.30;85.70;;;;;;5036505;28;20104;-69
2023/10/12 02:39:30;;;;;;;21.15;10.93;;;18.20;85.70;;;;;;5036846;28;20025;-69
2023/10/12 02:45:05;;;;;;;20.15;11.98;;;18.30;85.90;;;;;;5055190;28;20037;-68
2023/10/12 02:47:30;;;;;;;17.90;11.45;;;18.30;86.00;;;;;;5035152;28;20048;-69
2023/10/12 02:50:01;;;;;;;20.58;11.38;;;18.30;86.00;;;;;;5036958;28;20056;-68
2023/10/12 02:52:33;;;;;;;16.42;11.00;;;18.30;86.10;;;;;;5036672;28;20100;-69
2023/10/12 02:55:19;;;;;;;17.67;11.02;;;18.30;86.10;;;;;;5055140;28;20397;-68
2023/10/12 02:57:54;;;;;;;17.95;11.20;;;18.20;86.10;;;;;;5052939;28;20029;-69
2023/10/12 03:00:23;;;;;;;17.33;11.43;;;18.20;86.20;;;;;;5052554;28;20115;-69
2023/10/12 03:02:53;;;;;;;17.20;10.68;;;18.20;86.20;;;;;;5036372;28;20112;-69
2023/10/12 03:05:30;;;;;;;17.13;11.00;;;18.20;86.30;;;;;;5055027;28;20075;-69
2023/10/12 03:07:58;;;;;;;17.38;10.88;;;18.20;86.30;;;;;;5052869;28;20094;-69
2023/10/12 03:10:26;;;;;;;17.15;9.77;;;18.20;86.30;;;;;;5036903;28;20059;-69
2023/10/12 03:12:56;;;;;;;16.85;10.50;;;18.20;86.30;;;;;;5034358;28;20025;-69
2023/10/12 03:16:03;;;;;;;18.27;10.35;;;18.20;86.30;;;;;;5036476;28;20033;-69
2023/10/12 03:18:22;;;;;;;17.33;11.07;;;18.20;86.30;;;;;;5032599;28;20035;-69
2023/10/12 03:21:01;;;;;;;16.80;10.50;;;18.20;86.30;;;;;;5035896;28;20091;-69
2023/10/12 03:23:28;;;;;;;16.10;10.35;;;18.20;86.30;;;;;;5030427;28;20083;-69
2023/10/12 03:25:54;;;;;;;16.75;9.73;;;18.20;86.30;;;;;;5036615;28;20047;-69
2023/10/12 03:28:29;;;;;;;19.30;10.95;;;18.20;86.30;;;;;;5036155;28;20104;-69
2023/10/12 03:31:15;;;;;;;18.00;10.63;;;18.20;86.30;;;;;;5051186;28;20017;-69
2023/10/12 03:33:46;;;;;;;17.13;10.68;;;18.20;86.30;;;;;;5052555;28;20024;-69
2023/10/12 03:36:22;;;;;;;;;;;18.10;86.30;;;;;;5058662;28;20024;-69
2023/10/12 03:47:14;;;;;;;16.67;9.70;;;18.10;86.30;;;;;;5052920;28;20033;-69
2023/10/12 03:50:05;;;;;;;16.88;9.48;;;18.10;86.30;;;;;;5019323;28;20060;-69
2023/10/12 03:52:34;;;;;;;15.45;8.88;;;18.10;86.30;;;;;;5033379;28;20040;-69
2023/10/12 03:57:39;;;;;;;15.57;9.30;;;18.10;86.30;;;;;;5048882;28;20056;-69
2023/10/12 04:02:45;;;;;;;17.63;8.85;;;18.10;86.40;;;;;;5035114;28;20614;-69
2023/10/12 04:13:09;;;;;;;16.30;8.45;;;18.10;86.30;;;;;;5051381;28;20408;-69
2023/10/12 04:18:28;;;;;;;17.25;8.60;;;18.00;86.30;;;;;;5051437;28;20085;-69
2023/10/12 04:20:57;;;;;;;16.15;8.18;;;18.00;86.30;;;;;;5049749;28;20046;-69
2023/10/12 04:26:27;;;;;;;15.65;8.18;;;18.00;86.30;;;;;;5045966;28;20025;-69
2023/10/12 04:34:15;;;;;;;15.57;7.90;;;18.00;86.30;;;;;;5043865;28;20070;-69
2023/10/12 04:41:48;;;;;;;14.63;7.85;;;18.00;86.30;;;;;;5034789;28;20041;-69
2023/10/12 04:44:35;;;;;;;15.63;8.63;;;18.00;86.30;;;;;;5047021;28;20047;-69
2023/10/12 04:47:07;;;;;;;15.35;8.05;;;18.00;86.30;;;;;;5051667;28;20036;-69
2023/10/12 04:57:30;;;;;;;16.08;8.70;;;18.00;86.40;;;;;;5055585;28;20047;-68
2023/10/12 05:07:53;;;;;;;16.13;9.05;;;17.90;86.40;;;;;;5055822;28;20048;-68
2023/10/12 05:13:05;;;;;;;16.85;8.63;;;17.90;86.40;;;;;;5056771;28;20147;-68
2023/10/12 05:15:54;;;;;;;16.35;9.32;;;17.90;86.40;;;;;;5055394;28;20047;-69
2023/10/12 05:18:25;;;;;;;14.77;8.20;;;17.90;86.40;;;;;;5054413;28;20028;-69
2023/10/12 05:20:52;;;;;;;17.53;8.30;;;17.90;86.50;;;;;;5054880;28;20029;-69
2023/10/12 05:23:18;;;;;;;13.20;8.15;;;17.90;86.40;;;;;;5052878;28;20442;-70
2023/10/12 05:26:07;;;;;;;15.20;8.25;;;17.90;86.40;;;;;;5036576;28;20128;-70
2023/10/12 05:28:36;;;;;;;13.20;7.85;;;17.90;86.40;;;;;;5015886;28;20080;-72
2023/10/12 05:36:10;;;;;;;15.13;8.23;;;17.90;86.50;;;;;;5032374;28;20025;-72
2023/10/12 05:38:38;;;;;;;14.65;8.88;;;17.90;86.50;;;;;;5049688;28;20025;-72
2023/10/12 05:41:08;;;;;;;16.73;9.27;;;17.90;86.60;;;;;;5050808;28;20060;-72
2023/10/12 05:43:36;;;;;;;20.25;9.27;;;17.90;86.50;;;;;;5034045;28;20340;-71
2023/10/12 05:46:10;;;;;;;17.60;11.32;;;17.90;86.50;;;;;;5034828;28;20483;-71
2023/10/12 05:48:46;;;;;;;20.30;12.75;;;17.90;86.60;;;;;;5049674;28;20029;-72
2023/10/12 05:51:21;;;;;;;18.80;13.40;;;17.90;86.60;;;;;;5035656;28;20099;-72
2023/10/12 05:54:09;;;;;;;19.92;14.10;;;18.00;86.70;;;;;;5032834;28;20021;-72
2023/10/12 05:56:36;;;;;;;21.40;14.65;;;18.00;86.70;;;;;;5048857;28;20072;-71
2023/10/12 05:59:09;;;;;;;25.73;16.55;;;18.00;86.70;;;;;;5044143;28;20029;-72
2023/10/12 06:01:36;;;;;;;22.17;16.40;;;18.00;86.70;;;;;;5034157;28;20424;-72
2023/10/12 06:04:06;;;;;;;21.02;16.67;;;17.90;86.70;;;;;;5050785;28;20367;-72
2023/10/12 06:06:35;;;;;;;24.50;17.50;;;17.90;86.80;;;;;;5033395;28;20125;-72
2023/10/12 06:09:20;;;;;;;24.65;16.05;;;17.90;86.80;;;;;;5047326;28;20022;-72
2023/10/12 06:11:47;;;;;;;19.17;14.30;;;17.90;86.90;;;;;;5033067;28;20025;-72
2023/10/12 06:14:15;;;;;;;16.70;12.60;;;17.90;86.90;;;;;;5033051;28;20446;-72
2023/10/12 06:16:42;;;;;;;11.00;7.38;;;17.90;86.90;;;;;;5050468;28;20524;-72
2023/10/12 06:19:18;;;;;;;9.65;5.22;;;17.90;86.70;;;;;;5031964;28;20032;-70
2023/10/12 06:21:50;;;;;;;5.53;2.65;;;17.90;86.50;;;;;;5033860;28;20470;-70
2023/10/12 06:24:21;;;;;;;3.60;1.70;;;17.80;86.20;;;;;;5050123;28;20542;-70
2023/10/12 06:26:47;;;;;;;3.20;1.40;;;17.80;86.00;;;;;;5016815;28;20327;-70
2023/10/12 06:29:24;;;;;;;3.33;1.40;;;17.70;85.80;;;;;;5052198;28;20116;-71
2023/10/12 06:31:59;;;;;;;3.45;1.20;;;17.70;85.60;;;;;;5033627;28;20025;-71
2023/10/12 06:34:40;;;;;;;2.42;1.05;;;17.70;85.50;;;;;;5030316;28;20036;-71
2023/10/12 06:37:30;;;;;;;3.83;1.40;;;17.50;85.10;;;;;;5021848;28;20037;-70
2023/10/12 06:42:38;;;;;;;6.35;1.58;;;17.40;84.60;;;;;;5041408;28;20057;-71
2023/10/12 06:45:07;;;;;;;6.18;1.70;;;17.30;84.50;;;;;;5015302;28;20029;-70
2023/10/12 06:47:57;;;;;;;6.40;1.55;;;17.20;84.20;;;;;;5032274;28;20040;-70
2023/10/12 06:50:24;;;;;;;7.60;1.95;;;17.20;84.00;;;;;;5023174;28;20037;-71
2023/10/12 06:52:57;;;;;;;6.28;1.60;;;17.10;83.80;;;;;;5033125;28;20028;-70
2023/10/12 06:55:28;;;;;;;7.10;1.90;;;17.10;83.60;;;;;;5045920;28;20112;-71
2023/10/12 06:57:54;;;;;;;9.00;2.10;;;17.10;83.60;;;;;;5031604;28;20042;-70
2023/10/12 07:00:33;;;;;;;8.23;2.28;;;17.00;83.40;;;;;;5049356;28;20044;-70
2023/10/12 07:03:00;;;;;;;5.93;2.10;;;17.00;83.20;;;;;;5014535;28;20032;-70
2023/10/12 07:05:33;;;;;;;8.95;2.58;;;17.00;83.10;;;;;;5031758;28;20040;-70
2023/10/12 07:07:58;;;;;;;7.00;2.05;;;17.00;83.10;;;;;;5015047;28;20037;-70
2023/10/12 07:10:28;;;;;;;5.55;2.33;;;16.90;82.90;;;;;;5009981;28;20090;-70
2023/10/12 07:12:59;;;;;;;6.20;2.15;;;17.00;82.90;;;;;;5033859;28;20424;-70
2023/10/12 07:15:31;;;;;;;6.75;1.98;;;17.00;82.80;;;;;;5029870;28;20461;-70
2023/10/12 07:17:57;;;;;;;6.18;2.33;;;17.00;82.80;;;;;;5048138;28;20104;-70
2023/10/12 07:20:46;;;;;;;6.90;2.80;;;16.90;82.70;;;;;;5046673;28;20052;-70
2023/10/12 07:23:14;;;;;;;8.98;3.30;;;16.90;82.60;;;;;;5049272;28;20048;-70
2023/10/12 07:25:49;;;;;;;7.93;3.97;;;16.90;82.60;;;;;;5015633;28;20029;-71
2023/10/12 07:28:25;;;;;;;8.60;3.42;;;16.90;82.40;;;;;;5048945;28;20101;-70
2023/10/12 07:33:35;;;;;;;7.10;2.78;;;16.90;83.10;;;;;;5048128;28;20524;-72
2023/10/12 07:36:17;;;;;;;7.95;2.90;;;16.80;82.40;;;;;;5049428;28;20030;-70
2023/10/12 07:38:45;;;;;;;6.93;3.47;;;16.80;82.40;;;;;;5046366;28;20045;-71
2023/10/12 07:41:11;;;;;;;6.63;2.72;;;16.80;82.40;;;;;;5031748;28;20037;-70
2023/10/12 07:43:38;;;;;;;6.47;2.30;;;16.80;82.40;;;;;;5047892;28;20053;-71
2023/10/12 07:46:24;;;;;;;5.95;2.03;;;16.80;82.30;;;;;;5048754;28;20029;-71
2023/10/12 07:48:51;;;;;;;5.80;2.22;;;16.80;82.20;;;;;;5046894;28;20116;-70
2023/10/12 07:51:26;;;;;;;5.43;2.03;;;16.80;82.20;;;;;;5045695;28;20028;-71
2023/10/12 07:54:24;;;;;;;5.53;1.60;;;16.80;82.20;;;;;;5046416;28;20090;-71
2023/10/12 07:56:48;;;;;;;7.18;2.03;;;16.80;82.20;;;;;;5048311;28;20033;-71
2023/10/12 07:59:16;;;;;;;5.25;1.50;;;16.80;82.20;;;;;;5031953;28;20386;-70
2023/10/12 08:01:50;;;;;;;3.95;1.30;;;16.80;82.10;;;;;;5031917;28;20524;-72
2023/10/12 08:04:31;;;;;;;7.10;1.90;;;16.80;82.10;;;;;;5028194;28;20043;-72
2023/10/12 08:06:57;;;;;;;;;;;16.70;82.10;;;;;;5054604;28;20040;-72
2023/10/12 08:11:55;;;;;;;5.68;1.80;;;16.70;82.30;;;;;;5053767;28;20108;-73
2023/10/12 08:19:44;;;;;;;4.82;1.90;;;16.80;82.30;;;;;;5036417;28;20122;-72
2023/10/12 08:22:25;;;;;;;4.28;1.70;;;16.80;82.30;;;;;;5054363;28;20029;-72
2023/10/12 08:24:53;;;;;;;5.07;1.60;;;16.70;82.20;;;;;;5019967;28;20517;-73
2023/10/12 08:27:19;;;;;;;3.78;1.58;;;16.70;82.20;;;;;;5022909;28;20174;-73
2023/10/12 08:32:12;;;;;;;2.40;1.17;;;16.70;82.20;;;;;;5058297;28;20040;-72
2023/10/12 08:39:38;;;;;;;3.05;1.27;;;16.80;82.10;;;;;;5057003;28;20060;-72
2023/10/12 08:44:49;;;;;;;4.75;1.20;;;16.80;82.10;;;;;;5057969;28;20037;-73
2023/10/12 08:47:25;;;;;;;4.32;1.50;;;16.80;82.20;;;;;;5039077;28;20111;-72
2023/10/12 08:50:04;;;;;;;2.67;1.10;;;16.70;82.20;;;;;;5040061;28;20446;-73
2023/10/12 08:52:35;;;;;;;4.50;1.70;;;16.70;82.30;;;;;;5055664;28;20500;-72
2023/10/12 08:57:55;;;;;;;3.35;1.40;;;16.70;82.20;;;;;;5057671;28;20568;-72
2023/10/12 09:01:31;;;;;;;3.72;1.20;;;16.70;82.20;;;;;;5057744;28;20029;-72
2023/10/12 09:03:38;;;;;;;3.33;1.17;;;16.70;82.20;;;;;;5049531;28;20052;-72
2023/10/12 09:06:19;;;;;;;2.70;1.25;;;16.70;82.30;;;;;;5057639;28;20029;-72
2023/10/12 09:08:46;;;;;;;2.75;0.80;;;16.70;82.30;;;;;;5039663;28;20059;-72
2023/10/12 09:13:44;;;;;;;2.65;1.00;;;16.70;82.30;;;;;;5056477;28;20040;-73
2023/10/12 09:16:11;;;;;;;3.10;0.90;;;16.70;82.30;;;;;;5055455;28;20021;-72
2023/10/12 09:18:46;;;;;;;3.08;1.10;;;16.70;82.30;;;;;;5057592;28;20029;-72
2023/10/12 09:26:30;;;;;;;2.75;1.00;;;16.70;82.30;;;;;;5055326;28;20017;-72
2023/10/12 09:36:55;;;;;;;3.22;1.13;;;16.70;82.30;;;;;;5056519;28;20029;-72
2023/10/12 09:39:25;;;;;;;2.13;1.02;;;16.70;82.30;;;;;;5044932;28;20024;-72
2023/10/12 09:42:09;;;;;;;3.33;1.60;;;16.70;82.40;;;;;;5039335;28;20033;-72
2023/10/12 09:44:39;;;;;;;3.67;1.45;;;16.70;82.40;;;;;;5056844;28;20035;-72
2023/10/12 09:47:11;;;;;;;4.63;1.83;;;16.80;82.40;;;;;;5038810;28;20074;-72
2023/10/12 09:49:43;;;;;;;4.45;1.63;;;16.70;83.00;;;;;;5018624;28;20049;-72
2023/10/12 09:52:17;;;;;;;5.93;2.38;;;16.80;82.40;;;;;;5035398;28;20030;-72
2023/10/12 09:54:53;;;;;;;5.13;1.92;;;16.80;82.40;;;;;;5035496;28;20026;-72
2023/10/12 09:57:26;;;;;;;5.65;2.05;;;16.80;82.30;;;;;;5036672;28;20327;-72
2023/10/12 09:59:53;;;;;;;5.10;2.15;;;16.80;82.40;;;;;;5035828;28;20029;-72
2023/10/12 10:02:30;;;;;;;6.65;2.65;;;16.80;82.40;;;;;;5036576;28;20029;-72
2023/10/12 10:05:26;;;;;;;5.40;2.30;;;16.80;82.50;;;;;;5035641;28;20060;-72
2023/10/12 10:08:03;;;;;;;5.63;2.30;;;16.80;82.50;;;;;;5035517;28;20030;-72
2023/10/12 10:10:34;;;;;;;4.78;2.20;;;16.80;82.50;;;;;;5032500;28;20033;-71
2023/10/12 10:13:10;;;;;;;5.63;1.90;;;16.80;82.60;;;;;;5035037;28;20029;-72
2023/10/12 10:15:59;;;;;;;5.22;2.00;;;16.80;82.60;;;;;;5029245;28;20104;-71
2023/10/12 10:18:28;;;;;;;4.22;1.88;;;16.80;83.30;;;;;;5034237;28;20104;-71
2023/10/12 10:21:01;;;;;;;5.25;2.10;;;16.80;82.70;;;;;;5030554;28;20124;-71
2023/10/12 10:23:35;;;;;;;5.10;2.38;;;16.80;82.80;;;;;;5030678;28;20026;-72
2023/10/12 10:26:19;;;;;;;7.35;2.78;;;16.80;82.70;;;;;;5027918;28;20018;-72
2023/10/12 10:28:55;;;;;;;5.35;2.63;;;16.80;82.70;;;;;;5031262;28;20032;-72
2023/10/12 10:31:28;;;;;;;6.22;2.60;;;16.80;82.70;;;;;;5030154;28;20458;-72
2023/10/12 10:34:01;;;;;;;6.45;2.80;;;16.90;82.80;;;;;;5014332;28;20056;-72
2023/10/12 10:36:34;;;;;;;6.72;3.20;;;16.90;82.80;;;;;;5033014;28;20477;-72
2023/10/12 10:41:46;;;;;;;7.03;3.10;;;16.90;82.70;;;;;;5029960;28;20462;-72
2023/10/12 10:44:21;;;;;;;7.65;2.83;;;17.00;82.70;;;;;;5016059;28;20115;-72
2023/10/12 10:46:58;;;;;;;7.32;2.67;;;17.00;82.80;;;;;;5044709;28;20026;-72
2023/10/12 10:49:30;;;;;;;6.75;3.08;;;17.00;82.80;;;;;;5026906;28;20386;-72
2023/10/12 10:54:32;;;;;;;6.95;3.35;;;17.00;82.80;;;;;;5049662;28;20025;-71
2023/10/12 10:56:58;;;;;;;7.55;3.58;;;17.10;82.90;;;;;;5016383;28;20032;-72
2023/10/12 10:59:25;;;;;;;7.53;3.55;;;17.10;82.90;;;;;;5033269;28;20037;-72
2023/10/12 11:01:52;;;;;;;7.35;3.00;;;17.10;82.90;;;;;;5030821;28;20104;-71
2023/10/12 11:07:04;;;;;;;10.07;4.40;;;17.20;83.10;;;;;;5035463;28;20032;-71
2023/10/12 11:12:20;;;;;;;7.88;3.70;;;17.20;83.00;;;;;;5048467;28;20021;-69
2023/10/12 11:14:52;;;;;;;8.05;3.85;;;17.10;83.10;;;;;;5050392;28;20032;-72
2023/10/12 11:17:21;;;;;;;8.15;4.53;;;17.20;83.20;;;;;;5053579;28;20033;-72
2023/10/12 11:19:50;;;;;;;8.30;4.53;;;17.20;83.30;;;;;;5062695;28;20045;-72
2023/10/12 11:22:17;;;;;;;8.70;4.60;;;17.20;83.30;;;;;;5037297;28;20045;-72
2023/10/12 11:24:53;;;;;;;7.85;3.92;;;17.20;83.40;;;;;;5020395;28;20029;-72
2023/10/12 11:27:33;;;;;;;8.98;4.60;;;17.20;83.40;;;;;;5052202;28;20362;-72
2023/10/12 11:30:18;;;;;;;9.45;4.50;;;17.30;83.40;;;;;;5054463;28;20072;-72
2023/10/12 11:32:55;;;;;;;9.10;4.68;;;17.30;83.40;;;;;;5037283;28;20047;-72
2023/10/12 11:35:40;;;;;;;9.48;5.50;;;17.30;83.50;;;;;;5055397;28;20179;-72
2023/10/12 11:38:20;;;;;;;9.00;5.13;;;17.30;83.50;;;;;;5019708;28;20454;-72
2023/10/12 11:40:55;;;;;;;8.95;5.40;;;17.40;83.60;;;;;;5049292;28;20029;-72
2023/10/12 11:43:54;;;;;;;10.45;6.05;;;17.40;83.60;;;;;;5054575;28;20386;-72
2023/10/12 11:46:26;;;;;;;9.65;5.90;;;17.40;83.50;;;;;;5044942;28;20025;-72
2023/10/12 11:49:07;;;;;;;10.90;6.30;;;17.40;83.60;;;;;;5054605;28;20025;-72
2023/10/12 11:51:40;;;;;;;10.18;6.05;;;17.40;83.70;;;;;;5013077;28;20481;-72
2023/10/12 11:54:08;;;;;;;10.30;6.57;;;17.40;83.80;;;;;;5014022;28;20060;-72
2023/10/12 11:56:44;;;;;;;11.63;7.35;;;17.40;83.90;;;;;;5013857;28;20522;-72
2023/10/12 11:59:22;;;;;;;12.43;6.68;;;17.40;83.90;;;;;;4996298;28;20130;-72
2023/10/12 12:01:54;;;;;;;12.10;7.10;;;17.40;84.10;;;;;;5014689;28;20073;-72
2023/10/12 12:04:31;;;;;;;11.52;7.32;;;17.40;84.20;;;;;;5013603;28;20359;-72
2023/10/12 12:06:59;;;;;;;12.48;7.68;;;17.40;84.30;;;;;;5013452;28;20045;-72
2023/10/12 12:09:27;;;;;;;11.45;7.35;;;17.40;84.30;;;;;;5013734;28;20112;-72
2023/10/12 12:11:55;;;;;;;9.73;6.82;;;17.40;84.40;;;;;;5014761;28;20034;-72
2023/10/12 12:14:20;;;;;;;13.55;8.27;;;17.40;84.50;;;;;;4997295;28;20034;-72
2023/10/12 12:16:47;;;;;;;12.20;6.93;;;17.40;84.50;;;;;;5013968;28;20057;-72
2023/10/12 12:19:18;;;;;;;10.85;6.65;;;17.40;84.60;;;;;;4995086;28;20054;-72
2023/10/12 12:21:46;;;;;;;10.70;6.32;;;17.50;84.60;;;;;;5014876;28;20077;-72
2023/10/12 12:26:49;;;;;;;11.93;6.70;;;17.50;84.80;;;;;;5002456;28;20455;-72
2023/10/12 12:29:16;;;;;;;12.50;7.60;;;17.50;84.80;;;;;;5011607;28;20033;-72
2023/10/12 12:31:42;;;;;;;11.63;7.88;;;17.50;84.80;;;;;;5013115;28;20054;-72
2023/10/12 12:34:08;;;;;;;11.90;7.93;;;17.50;84.80;;;;;;5015847;28;20033;-72
2023/10/12 12:36:34;;;;;;;14.13;8.45;;;17.50;84.90;;;;;;5000610;28;20375;-72
2023/10/12 12:39:01;;;;;;;12.57;8.07;;;17.50;85.00;;;;;;5014168;28;20113;-71
2023/10/12 12:41:29;;;;;;;13.55;8.77;;;17.60;85.10;;;;;;5012326;28;20025;-71
2023/10/12 12:43:59;;;;;;;15.35;9.02;;;17.60;85.10;;;;;;4996121;28;20022;-73
2023/10/12 12:46:25;;;;;;;12.90;8.70;;;17.60;85.20;;;;;;5013034;28;20057;-74
2023/10/12 12:48:52;;;;;;;12.40;8.32;;;17.60;85.20;;;;;;5013742;28;20064;-73
2023/10/12 12:51:19;;;;;;;13.45;9.27;;;17.60;85.30;;;;;;5032432;28;20049;-74
2023/10/12 12:53:46;;;;;;;13.57;8.25;;;17.60;85.30;;;;;;5027584;28;20029;-74
2023/10/12 12:56:17;;;;;;;11.63;8.48;;;17.60;85.40;;;;;;5033141;28;20401;-74
2023/10/12 12:58:47;;;;;;;14.25;8.88;;;17.60;85.50;;;;;;5033159;28;20034;-73
2023/10/12 13:01:23;;;;;;;12.75;9.07;;;17.60;85.50;;;;;;5016620;28;20168;-73
2023/10/12 13:03:52;;;;;;;14.25;9.32;;;17.60;85.50;;;;;;5012599;28;20148;-73
2023/10/12 13:06:19;;;;;;;13.65;9.13;;;17.60;85.60;;;;;;5031827;28;20516;-72
2023/10/12 13:08:45;;;;;;;13.77;9.13;;;17.60;85.70;;;;;;5030184;28;20167;-70
2023/10/12 13:11:11;;;;;;;14.10;9.10;;;17.70;85.80;;;;;;5026208;28;20112;-70
2023/10/12 13:13:39;;;;;;;13.80;9.15;;;17.70;85.80;;;;;;5028056;28;20526;-70
2023/10/12 13:16:08;;;;;;;13.18;8.75;;;17.70;85.90;;;;;;5028434;28;20117;-70
2023/10/12 13:18:34;;;;;;;14.32;9.48;;;17.70;85.90;;;;;;5046885;28;20026;-70
2023/10/12 13:21:06;;;;;;;15.02;9.15;;;17.70;85.90;;;;;;5033274;28;20072;-71
2023/10/12 13:23:33;;;;;;;13.00;9.38;;;17.70;86.00;;;;;;5030728;28;20068;-71
2023/10/12 13:26:09;;;;;;;12.82;7.80;;;17.70;86.10;;;;;;5011610;28;20037;-71
2023/10/12 13:28:37;;;;;;;11.60;8.48;;;17.70;86.20;;;;;;5028446;28;20113;-71
2023/10/12 13:31:05;;;;;;;13.43;8.35;;;17.70;86.20;;;;;;5032120;28;20037;-72
2023/10/12 13:33:31;;;;;;;13.32;8.10;;;17.70;86.20;;;;;;5047264;28;20453;-72
2023/10/12 13:35:58;;;;;;;15.20;8.93;;;17.60;86.20;;;;;;5029514;28;20021;-72
2023/10/12 13:38:29;;;;;;;12.85;7.97;;;17.70;86.40;;;;;;5029941;28;20501;-71
2023/10/12 13:40:55;;;;;;;11.43;7.97;;;17.70;86.40;;;;;;5030514;28;20374;-70
2023/10/12 13:43:30;;;;;;;13.05;7.93;;;17.60;86.40;;;;;;5029673;28;20028;-72
2023/10/12 13:45:56;;;;;;;12.25;7.88;;;17.60;86.50;;;;;;5015626;28;20029;-71
2023/10/12 13:48:29;;;;;;;14.20;8.93;;;17.60;86.50;;;;;;5036695;28;20112;-71
2023/10/12 15:17:06;;;;;;;15.75;11.85;;;16.40;83.00;;;;;;5127831;27;20390;-67
2023/10/12 15:19:32;;;;;;;18.38;11.00;;;17.50;90.90;;;;;;5123293;28;20035;-69
2023/10/12 15:21:58;;;;;;;16.27;10.13;;;17.60;90.60;;;;;;5114629;28;20016;-69
2023/10/12 15:24:26;;;;;;;13.15;9.23;;;17.70;90.40;;;;;;5124336;28;20104;-69
2023/10/12 15:26:52;;;;;;;13.07;8.73;;;17.70;90.20;;;;;;5098345;28;20031;-69
2023/10/12 15:29:17;;;;;;;13.43;8.35;;;17.80;90.10;;;;;;5100566;28;20081;-69
2023/10/12 15:31:43;;;;;;;12.27;8.63;;;17.80;90.00;;;;;;5114289;27;20027;-67
2023/10/12 15:34:11;;;;;;;11.55;8.02;;;17.80;89.80;;;;;;5119469;28;20069;-67
2023/10/12 15:36:38;;;;;;;14.00;7.80;;;17.80;89.60;;;;;;5114845;28;20496;-67
2023/10/12 15:39:14;;;;;;;12.85;8.50;;;17.80;89.40;;;;;;5121471;28;20027;-67
2023/10/12 15:41:40;;;;;;;13.02;7.72;;;17.80;89.30;;;;;;5130285;27;20175;-67
2023/10/12 15:44:08;;;;;;;12.65;8.13;;;17.80;89.30;;;;;;5109266;28;20495;-67
2023/10/12 15:46:34;;;;;;;12.73;7.18;;;17.80;89.20;;;;;;5100635;28;20023;-67
2023/10/12 15:49:01;;;;;;;15.35;8.60;;;17.80;89.10;;;;;;5114788;28;20024;-65
2023/10/12 15:51:28;;;;;;;13.52;8.23;;;17.80;89.10;;;;;;5111229;28;20031;-65
2023/10/12 15:53:54;;;;;;;14.00;8.68;;;17.80;89.10;;;;;;5111533;28;20020;-65
2023/10/12 15:56:20;;;;;;;17.08;8.75;;;17.80;89.10;;;;;;5123285;28;20028;-67
2023/10/12 15:58:48;;;;;;;14.65;9.07;;;17.80;89.00;;;;;;5110343;28;20066;-66
2023/10/12 16:01:14;;;;;;;14.52;8.65;;;17.80;89.00;;;;;;5120111;28;20063;-66
2023/10/12 16:03:40;;;;;;;12.75;8.45;;;17.80;89.00;;;;;;5110290;28;20043;-66
2023/10/12 16:06:06;;;;;;;12.93;7.63;;;17.80;89.00;;;;;;5111541;28;20031;-66
2023/10/12 16:08:32;;;;;;;12.07;7.65;;;17.80;89.00;;;;;;5097087;28;20035;-66
2023/10/12 16:10:58;;;;;;;10.48;6.85;;;17.80;89.00;;;;;;5112057;28;20020;-66
2023/10/12 16:13:24;;;;;;;10.73;6.70;;;17.80;88.90;;;;;;5111181;28;20020;-66
2023/10/12 16:15:54;;;;;;;9.40;6.13;;;17.90;89.00;;;;;;5094506;28;20062;-66
2023/10/12 16:18:21;;;;;;;11.75;6.47;;;17.80;88.90;;;;;;5094598;28;20021;-66
2023/10/12 16:20:47;;;;;;;12.52;7.05;;;17.80;88.80;;;;;;5101134;28;20119;-66
2023/10/12 16:23:12;;;;;;;12.10;6.55;;;17.80;88.80;;;;;;5094000;28;20166;-65
2023/10/12 16:25:38;;;;;;;9.73;5.80;;;17.80;88.80;;;;;;5096792;28;20134;-66
2023/10/12 16:28:04;;;;;;;10.35;6.22;;;17.80;88.80;;;;;;5099083;28;20024;-66
2023/10/12 16:30:34;;;;;;;9.27;5.85;;;17.80;88.80;;;;;;5095665;28;20094;-66
2023/10/12 16:33:00;;;;;;;8.80;5.90;;;17.80;88.80;;;;;;5080338;28;20122;-69
2023/10/12 16:35:26;;;;;;;10.70;5.90;;;17.80;88.80;;;;;;5096496;28;20039;-68
2023/10/12 16:37:58;;;;;;;10.45;6.85;;;17.90;88.90;;;;;;5096144;28;20020;-67
2023/10/12 16:40:30;;;;;;;10.85;6.85;;;17.90;88.90;;;;;;5108414;28;20105;-68
2023/10/12 16:42:56;;;;;;;11.82;7.03;;;17.90;88.80;;;;;;5097280;28;20077;-67